sensor_id;sensor_type;location;lat;lon;timestamp;temperature;humidity
63094;DHT22;49183;51.380;0.098;2023-07-30T00:00:36;14.40;79.20
63094;DHT22;49183;51.380;0.098;2023-07-30T00:03:04;14.40;79.30
63094;DHT22;49183;51.380;0.098;2023-07-30T00:05:32;14.30;79.40
63094;DHT22;49183;51.380;0.098;2023-07-30T00:07:59;14.30;79.50
63094;DHT22;49183;51.380;0.098;2023-07-30T00:10:27;14.30;79.80
63094;DHT22;49183;51.380;0.098;2023-07-30T00:12:54;14.20;79.90
63094;DHT22;49183;51.380;0.098;2023-07-30T00:15:22;14.10;79.90
63094;DHT22;49183;51.380;0.098;2023-07-30T00:17:50;14.00;79.90
63094;DHT22;49183;51.380;0.098;2023-07-30T00:20:18;14.00;80.20
63094;DHT22;49183;51.380;0.098;2023-07-30T00:22:45;13.90;80.20
63094;DHT22;49183;51.380;0.098;2023-07-30T00:25:13;13.90;80.60
63094;DHT22;49183;51.380;0.098;2023-07-30T00:27:41;13.90;80.80
63094;DHT22;49183;51.380;0.098;2023-07-30T00:30:09;13.80;81.00
63094;DHT22;49183;51.380;0.098;2023-07-30T00:32:37;13.80;81.00
63094;DHT22;49183;51.380;0.098;2023-07-30T00:35:12;13.80;81.20
63094;DHT22;49183;51.380;0.098;2023-07-30T00:37:40;13.80;81.30
63094;DHT22;49183;51.380;0.098;2023-07-30T00:40:07;13.80;81.40
63094;DHT22;49183;51.380;0.098;2023-07-30T00:42:36;13.80;81.60
63094;DHT22;49183;51.380;0.098;2023-07-30T00:45:03;13.80;81.50
63094;DHT22;49183;51.380;0.098;2023-07-30T00:47:31;13.80;81.40
63094;DHT22;49183;51.380;0.098;2023-07-30T00:49:59;13.90;81.50
63094;DHT22;49183;51.380;0.098;2023-07-30T00:52:27;14.00;81.50
63094;DHT22;49183;51.380;0.098;2023-07-30T00:54:56;14.10;81.60
63094;DHT22;49183;51.380;0.098;2023-07-30T00:57:24;14.10;81.50
63094;DHT22;49183;51.380;0.098;2023-07-30T00:59:52;14.20;81.60
63094;DHT22;49183;51.380;0.098;2023-07-30T01:02:20;14.20;81.60
63094;DHT22;49183;51.380;0.098;2023-07-30T01:04:49;14.30;81.70
63094;DHT22;49183;51.380;0.098;2023-07-30T01:07:17;14.30;82.00
63094;DHT22;49183;51.380;0.098;2023-07-30T01:09:44;14.30;82.00
63094;DHT22;49183;51.380;0.098;2023-07-30T01:12:12;14.30;82.10
63094;DHT22;49183;51.380;0.098;2023-07-30T01:14:42;14.40;82.10
63094;DHT22;49183;51.380;0.098;2023-07-30T01:17:10;14.30;82.10
63094;DHT22;49183;51.380;0.098;2023-07-30T01:19:38;14.40;82.10
63094;DHT22;49183;51.380;0.098;2023-07-30T01:22:05;14.30;82.10
63094;DHT22;49183;51.380;0.098;2023-07-30T01:24:33;14.30;82.10
63094;DHT22;49183;51.380;0.098;2023-07-30T01:27:05;14.30;82.10
63094;DHT22;49183;51.380;0.098;2023-07-30T01:29:36;14.30;82.20
63094;DHT22;49183;51.380;0.098;2023-07-30T01:32:07;14.30;82.20
63094;DHT22;49183;51.380;0.098;2023-07-30T01:34:36;14.30;82.20
63094;DHT22;49183;51.380;0.098;2023-07-30T01:37:04;14.20;82.30
63094;DHT22;49183;51.380;0.098;2023-07-30T01:39:32;14.10;82.30
63094;DHT22;49183;51.380;0.098;2023-07-30T01:42:00;14.00;82.50
63094;DHT22;49183;51.380;0.098;2023-07-30T01:44:28;13.80;82.70
63094;DHT22;49183;51.380;0.098;2023-07-30T01:46:55;13.80;82.90
63094;DHT22;49183;51.380;0.098;2023-07-30T01:49:23;13.70;83.00
63094;DHT22;49183;51.380;0.098;2023-07-30T01:51:51;13.60;83.10
63094;DHT22;49183;51.380;0.098;2023-07-30T01:54:18;13.50;83.20
63094;DHT22;49183;51.380;0.098;2023-07-30T01:56:46;13.50;83.30
63094;DHT22;49183;51.380;0.098;2023-07-30T01:59:13;13.40;83.40
63094;DHT22;49183;51.380;0.098;2023-07-30T02:01:42;13.40;83.60
63094;DHT22;49183;51.380;0.098;2023-07-30T02:04:10;13.40;83.70
63094;DHT22;49183;51.380;0.098;2023-07-30T02:06:38;13.40;83.80
63094;DHT22;49183;51.380;0.098;2023-07-30T02:09:05;13.30;83.70
63094;DHT22;49183;51.380;0.098;2023-07-30T02:11:35;13.30;83.90
63094;DHT22;49183;51.380;0.098;2023-07-30T02:14:03;13.30;83.90
63094;DHT22;49183;51.380;0.098;2023-07-30T02:16:34;13.30;84.00
63094;DHT22;49183;51.380;0.098;2023-07-30T02:19:02;13.30;84.10
63094;DHT22;49183;51.380;0.098;2023-07-30T02:21:32;13.30;84.20
63094;DHT22;49183;51.380;0.098;2023-07-30T02:24:04;13.30;84.30
63094;DHT22;49183;51.380;0.098;2023-07-30T02:26:31;13.30;84.30
63094;DHT22;49183;51.380;0.098;2023-07-30T02:29:00;13.30;84.20
63094;DHT22;49183;51.380;0.098;2023-07-30T02:31:28;13.30;84.20
63094;DHT22;49183;51.380;0.098;2023-07-30T02:33:55;13.40;84.10
63094;DHT22;49183;51.380;0.098;2023-07-30T02:36:23;13.40;83.90
63094;DHT22;49183;51.380;0.098;2023-07-30T02:38:50;13.50;83.70
63094;DHT22;49183;51.380;0.098;2023-07-30T02:41:18;13.60;83.50
63094;DHT22;49183;51.380;0.098;2023-07-30T02:43:45;13.60;83.40
63094;DHT22;49183;51.380;0.098;2023-07-30T02:46:13;13.60;83.20
63094;DHT22;49183;51.380;0.098;2023-07-30T02:48:41;13.70;83.10
63094;DHT22;49183;51.380;0.098;2023-07-30T02:51:09;13.70;83.00
63094;DHT22;49183;51.380;0.098;2023-07-30T02:53:42;13.70;82.90
63094;DHT22;49183;51.380;0.098;2023-07-30T02:56:12;13.80;82.80
63094;DHT22;49183;51.380;0.098;2023-07-30T02:58:40;13.80;82.70
63094;DHT22;49183;51.380;0.098;2023-07-30T03:01:08;13.80;82.60
63094;DHT22;49183;51.380;0.098;2023-07-30T03:03:37;13.80;82.60
63094;DHT22;49183;51.380;0.098;2023-07-30T03:06:07;13.80;82.60
63094;DHT22;49183;51.380;0.098;2023-07-30T03:08:35;13.80;82.50
63094;DHT22;49183;51.380;0.098;2023-07-30T03:11:03;13.80;82.40
63094;DHT22;49183;51.380;0.098;2023-07-30T03:13:31;13.80;82.40
63094;DHT22;49183;51.380;0.098;2023-07-30T03:15:58;13.80;82.50
63094;DHT22;49183;51.380;0.098;2023-07-30T03:18:26;13.80;82.70
63094;DHT22;49183;51.380;0.098;2023-07-30T03:20:59;13.80;82.80
63094;DHT22;49183;51.380;0.098;2023-07-30T03:23:29;13.70;82.80
63094;DHT22;49183;51.380;0.098;2023-07-30T03:25:57;13.70;83.10
63094;DHT22;49183;51.380;0.098;2023-07-30T03:28:32;13.70;83.20
63094;DHT22;49183;51.380;0.098;2023-07-30T03:30:59;13.70;83.20
63094;DHT22;49183;51.380;0.098;2023-07-30T03:33:27;13.70;83.30
63094;DHT22;49183;51.380;0.098;2023-07-30T03:35:57;13.60;83.40
63094;DHT22;49183;51.380;0.098;2023-07-30T03:38:24;13.60;83.40
63094;DHT22;49183;51.380;0.098;2023-07-30T03:40:54;13.50;83.50
63094;DHT22;49183;51.380;0.098;2023-07-30T03:43:22;13.50;83.60
63094;DHT22;49183;51.380;0.098;2023-07-30T03:45:50;13.40;83.70
63094;DHT22;49183;51.380;0.098;2023-07-30T03:48:18;13.40;83.80
63094;DHT22;49183;51.380;0.098;2023-07-30T03:50:45;13.30;83.90
63094;DHT22;49183;51.380;0.098;2023-07-30T03:53:15;13.30;84.10
63094;DHT22;49183;51.380;0.098;2023-07-30T03:55:45;13.30;84.10
63094;DHT22;49183;51.380;0.098;2023-07-30T03:58:14;13.30;84.20
63094;DHT22;49183;51.380;0.098;2023-07-30T04:00:41;13.30;84.20
63094;DHT22;49183;51.380;0.098;2023-07-30T04:03:10;13.30;84.20
63094;DHT22;49183;51.380;0.098;2023-07-30T04:05:38;13.30;84.10
63094;DHT22;49183;51.380;0.098;2023-07-30T04:08:06;13.30;84.20
63094;DHT22;49183;51.380;0.098;2023-07-30T04:10:35;13.30;84.30
63094;DHT22;49183;51.380;0.098;2023-07-30T04:13:05;13.30;84.30
63094;DHT22;49183;51.380;0.098;2023-07-30T04:15:47;13.20;84.30
63094;DHT22;49183;51.380;0.098;2023-07-30T04:18:14;13.20;84.50
63094;DHT22;49183;51.380;0.098;2023-07-30T04:20:42;13.10;84.70
63094;DHT22;49183;51.380;0.098;2023-07-30T04:23:12;13.10;84.90
63094;DHT22;49183;51.380;0.098;2023-07-30T04:25:42;12.90;85.00
63094;DHT22;49183;51.380;0.098;2023-07-30T04:28:10;12.80;85.20
63094;DHT22;49183;51.380;0.098;2023-07-30T04:30:37;12.80;85.40
63094;DHT22;49183;51.380;0.098;2023-07-30T04:33:06;12.80;85.50
63094;DHT22;49183;51.380;0.098;2023-07-30T04:35:38;12.80;85.60
63094;DHT22;49183;51.380;0.098;2023-07-30T04:38:07;12.80;85.70
63094;DHT22;49183;51.380;0.098;2023-07-30T04:40:38;12.80;85.80
63094;DHT22;49183;51.380;0.098;2023-07-30T04:43:08;12.80;85.90
63094;DHT22;49183;51.380;0.098;2023-07-30T04:45:36;12.80;86.10
63094;DHT22;49183;51.380;0.098;2023-07-30T04:52:54;12.80;86.10
63094;DHT22;49183;51.380;0.098;2023-07-30T05:23:03;13.40;85.70
63094;DHT22;49183;51.380;0.098;2023-07-30T07:53:05;17.50;73.90
63094;DHT22;49183;51.380;0.098;2023-07-30T08:00:28;17.60;73.10
63094;DHT22;49183;51.380;0.098;2023-07-30T08:36:35;19.00;68.80
63094;DHT22;49183;51.380;0.098;2023-07-30T09:15:49;19.50;63.70
63094;DHT22;49183;51.380;0.098;2023-07-30T09:23:09;19.10;65.50
63094;DHT22;49183;51.380;0.098;2023-07-30T09:44:00;18.80;67.30
63094;DHT22;49183;51.380;0.098;2023-07-30T10:10:11;16.90;77.80
63094;DHT22;49183;51.380;0.098;2023-07-30T10:35:57;17.00;77.00
63094;DHT22;49183;51.380;0.098;2023-07-30T11:27:13;19.20;67.90
63094;DHT22;49183;51.380;0.098;2023-07-30T12:15:54;18.90;65.20
63094;DHT22;49183;51.380;0.098;2023-07-30T13:02:12;19.50;59.80
63094;DHT22;49183;51.380;0.098;2023-07-30T13:04:40;19.50;59.80
63094;DHT22;49183;51.380;0.098;2023-07-30T13:07:12;19.50;59.80
63094;DHT22;49183;51.380;0.098;2023-07-30T13:09:39;19.60;60.00
63094;DHT22;49183;51.380;0.098;2023-07-30T13:12:08;19.70;60.20
63094;DHT22;49183;51.380;0.098;2023-07-30T13:14:37;19.80;60.10
63094;DHT22;49183;51.380;0.098;2023-07-30T13:17:05;19.90;59.70
63094;DHT22;49183;51.380;0.098;2023-07-30T13:19:33;20.00;59.60
63094;DHT22;49183;51.380;0.098;2023-07-30T13:22:01;20.10;59.20
63094;DHT22;49183;51.380;0.098;2023-07-30T13:24:29;20.20;58.80
63094;DHT22;49183;51.380;0.098;2023-07-30T13:26:59;20.30;58.10
63094;DHT22;49183;51.380;0.098;2023-07-30T13:29:26;20.30;57.70
63094;DHT22;49183;51.380;0.098;2023-07-30T13:31:56;20.30;57.50
63094;DHT22;49183;51.380;0.098;2023-07-30T13:34:24;20.20;57.40
63094;DHT22;49183;51.380;0.098;2023-07-30T13:36:54;20.10;57.20
63094;DHT22;49183;51.380;0.098;2023-07-30T13:39:22;20.10;57.70
63094;DHT22;49183;51.380;0.098;2023-07-30T13:41:49;20.00;57.50
63094;DHT22;49183;51.380;0.098;2023-07-30T13:44:25;20.00;57.80
63094;DHT22;49183;51.380;0.098;2023-07-30T13:46:55;20.00;58.20
63094;DHT22;49183;51.380;0.098;2023-07-30T13:49:23;19.90;58.10
63094;DHT22;49183;51.380;0.098;2023-07-30T13:51:53;19.80;58.40
63094;DHT22;49183;51.380;0.098;2023-07-30T13:54:23;19.80;58.60
63094;DHT22;49183;51.380;0.098;2023-07-30T13:56:51;19.80;58.90
63094;DHT22;49183;51.380;0.098;2023-07-30T13:59:20;19.80;59.00
63094;DHT22;49183;51.380;0.098;2023-07-30T14:01:54;19.70;58.90
63094;DHT22;49183;51.380;0.098;2023-07-30T14:04:25;19.60;58.90
63094;DHT22;49183;51.380;0.098;2023-07-30T14:06:52;19.40;59.30
63094;DHT22;49183;51.380;0.098;2023-07-30T14:09:23;19.30;59.60
63094;DHT22;49183;51.380;0.098;2023-07-30T14:11:52;19.20;59.90
63094;DHT22;49183;51.380;0.098;2023-07-30T14:14:20;19.00;60.00
63094;DHT22;49183;51.380;0.098;2023-07-30T14:16:51;18.80;60.80
63094;DHT22;49183;51.380;0.098;2023-07-30T14:19:24;18.50;61.80
63094;DHT22;49183;51.380;0.098;2023-07-30T14:21:52;18.20;63.40
63094;DHT22;49183;51.380;0.098;2023-07-30T14:24:19;17.90;64.70
63094;DHT22;49183;51.380;0.098;2023-07-30T14:26:47;17.80;66.20
63094;DHT22;49183;51.380;0.098;2023-07-30T14:29:18;17.70;67.20
63094;DHT22;49183;51.380;0.098;2023-07-30T14:31:48;17.70;67.80
63094;DHT22;49183;51.380;0.098;2023-07-30T14:34:15;17.70;67.70
63094;DHT22;49183;51.380;0.098;2023-07-30T14:36:46;17.70;67.80
63094;DHT22;49183;51.380;0.098;2023-07-30T14:39:13;17.80;67.30
63094;DHT22;49183;51.380;0.098;2023-07-30T14:41:41;17.80;67.10
63094;DHT22;49183;51.380;0.098;2023-07-30T14:44:11;17.70;67.10
63094;DHT22;49183;51.380;0.098;2023-07-30T14:46:39;17.60;67.40
63094;DHT22;49183;51.380;0.098;2023-07-30T14:49:12;17.60;67.80
63094;DHT22;49183;51.380;0.098;2023-07-30T14:51:44;17.60;68.30
63094;DHT22;49183;51.380;0.098;2023-07-30T14:54:12;17.60;68.50
63094;DHT22;49183;51.380;0.098;2023-07-30T14:56:42;17.60;68.80
63094;DHT22;49183;51.380;0.098;2023-07-30T14:59:12;17.60;69.00
63094;DHT22;49183;51.380;0.098;2023-07-30T15:01:40;17.50;69.10
63094;DHT22;49183;51.380;0.098;2023-07-30T15:04:09;17.40;69.30
63094;DHT22;49183;51.380;0.098;2023-07-30T15:06:39;17.30;69.60
63094;DHT22;49183;51.380;0.098;2023-07-30T15:09:08;17.30;70.00
63094;DHT22;49183;51.380;0.098;2023-07-30T15:11:39;17.20;70.60
63094;DHT22;49183;51.380;0.098;2023-07-30T15:14:06;17.30;71.00
63094;DHT22;49183;51.380;0.098;2023-07-30T15:16:36;17.30;71.60
63094;DHT22;49183;51.380;0.098;2023-07-30T15:19:04;17.30;71.60
63094;DHT22;49183;51.380;0.098;2023-07-30T15:21:36;17.40;71.60
63094;DHT22;49183;51.380;0.098;2023-07-30T15:24:07;17.40;71.30
63094;DHT22;49183;51.380;0.098;2023-07-30T15:26:35;17.40;71.30
63094;DHT22;49183;51.380;0.098;2023-07-30T15:29:04;17.40;71.20
63094;DHT22;49183;51.380;0.098;2023-07-30T15:31:31;17.40;71.20
63094;DHT22;49183;51.380;0.098;2023-07-30T15:34:03;17.30;71.40
63094;DHT22;49183;51.380;0.098;2023-07-30T15:36:31;17.30;71.50
63094;DHT22;49183;51.380;0.098;2023-07-30T15:38:59;17.10;72.00
63094;DHT22;49183;51.380;0.098;2023-07-30T15:41:26;16.80;72.90
63094;DHT22;49183;51.380;0.098;2023-07-30T15:43:54;16.60;73.80
63094;DHT22;49183;51.380;0.098;2023-07-30T15:46:26;16.40;74.60
63094;DHT22;49183;51.380;0.098;2023-07-30T15:48:54;16.40;75.00
63094;DHT22;49183;51.380;0.098;2023-07-30T15:51:21;16.40;75.20
63094;DHT22;49183;51.380;0.098;2023-07-30T15:53:52;16.40;75.70
63094;DHT22;49183;51.380;0.098;2023-07-30T15:56:21;16.40;75.90
63094;DHT22;49183;51.380;0.098;2023-07-30T15:58:51;16.40;75.90
63094;DHT22;49183;51.380;0.098;2023-07-30T16:01:18;16.40;75.90
63094;DHT22;49183;51.380;0.098;2023-07-30T16:03:46;16.40;75.90
63094;DHT22;49183;51.380;0.098;2023-07-30T16:06:15;16.40;76.10
63094;DHT22;49183;51.380;0.098;2023-07-30T16:08:43;16.40;76.40
63094;DHT22;49183;51.380;0.098;2023-07-30T16:11:10;16.30;76.60
63094;DHT22;49183;51.380;0.098;2023-07-30T16:13:38;16.30;76.80
63094;DHT22;49183;51.380;0.098;2023-07-30T16:16:15;16.20;76.90
63094;DHT22;49183;51.380;0.098;2023-07-30T16:18:47;16.20;77.00
63094;DHT22;49183;51.380;0.098;2023-07-30T16:21:17;16.10;77.60
63094;DHT22;49183;51.380;0.098;2023-07-30T16:23:48;16.00;78.00
63094;DHT22;49183;51.380;0.098;2023-07-30T16:26:16;15.90;78.40
63094;DHT22;49183;51.380;0.098;2023-07-30T16:28:43;15.90;78.50
63094;DHT22;49183;51.380;0.098;2023-07-30T16:31:13;15.80;78.80
63094;DHT22;49183;51.380;0.098;2023-07-30T16:33:43;15.90;79.10
63094;DHT22;49183;51.380;0.098;2023-07-30T16:36:19;15.90;79.50
63094;DHT22;49183;51.380;0.098;2023-07-30T16:38:49;15.90;79.90
63094;DHT22;49183;51.380;0.098;2023-07-30T16:41:21;15.80;80.40
63094;DHT22;49183;51.380;0.098;2023-07-30T16:43:49;15.80;80.60
63094;DHT22;49183;51.380;0.098;2023-07-30T16:46:19;15.80;80.90
63094;DHT22;49183;51.380;0.098;2023-07-30T16:48:46;15.80;80.90
63094;DHT22;49183;51.380;0.098;2023-07-30T16:51:14;15.80;81.10
63094;DHT22;49183;51.380;0.098;2023-07-30T16:53:44;15.80;81.50
63094;DHT22;49183;51.380;0.098;2023-07-30T16:56:12;15.80;81.70
63094;DHT22;49183;51.380;0.098;2023-07-30T16:58:45;15.80;81.90
63094;DHT22;49183;51.380;0.098;2023-07-30T17:01:12;15.80;82.00
63094;DHT22;49183;51.380;0.098;2023-07-30T17:03:41;15.70;82.20
63094;DHT22;49183;51.380;0.098;2023-07-30T17:06:09;15.70;82.30
63094;DHT22;49183;51.380;0.098;2023-07-30T17:08:36;15.60;82.40
63094;DHT22;49183;51.380;0.098;2023-07-30T17:11:07;15.60;82.40
63094;DHT22;49183;51.380;0.098;2023-07-30T17:13:34;15.50;82.70
63094;DHT22;49183;51.380;0.098;2023-07-30T17:18:45;15.30;83.30
63094;DHT22;49183;51.380;0.098;2023-07-30T17:21:14;15.30;83.70
63094;DHT22;49183;51.380;0.098;2023-07-30T17:29:45;15.10;84.40
63094;DHT22;49183;51.380;0.098;2023-07-30T17:44:35;14.90;85.70
63094;DHT22;49183;51.380;0.098;2023-07-30T17:50:54;14.90;86.20
63094;DHT22;49183;51.380;0.098;2023-07-30T17:53:23;14.90;86.20
63094;DHT22;49183;51.380;0.098;2023-07-30T17:59:17;15.00;86.40
63094;DHT22;49183;51.380;0.098;2023-07-30T18:15:32;15.10;86.90
63094;DHT22;49183;51.380;0.098;2023-07-30T18:21:21;15.20;87.00
63094;DHT22;49183;51.380;0.098;2023-07-30T18:23:48;15.20;87.20
63094;DHT22;49183;51.380;0.098;2023-07-30T18:36:25;15.30;87.50
63094;DHT22;49183;51.380;0.098;2023-07-30T18:42:11;15.40;87.60
63094;DHT22;49183;51.380;0.098;2023-07-30T18:59:14;15.50;87.80
63094;DHT22;49183;51.380;0.098;2023-07-30T19:01:58;15.50;87.90
63094;DHT22;49183;51.380;0.098;2023-07-30T19:04:34;15.50;88.00
63094;DHT22;49183;51.380;0.098;2023-07-30T19:07:04;15.50;88.10
63094;DHT22;49183;51.380;0.098;2023-07-30T19:12:53;15.50;88.30
63094;DHT22;49183;51.380;0.098;2023-07-30T19:15:24;15.50;88.30
63094;DHT22;49183;51.380;0.098;2023-07-30T19:20:40;15.50;88.40
63094;DHT22;49183;51.380;0.098;2023-07-30T19:23:07;15.60;88.50
63094;DHT22;49183;51.380;0.098;2023-07-30T19:25:36;15.60;88.80
63094;DHT22;49183;51.380;0.098;2023-07-30T19:28:03;15.60;88.80
63094;DHT22;49183;51.380;0.098;2023-07-30T19:30:38;15.60;88.80
63094;DHT22;49183;51.380;0.098;2023-07-30T19:33:06;15.60;88.80
63094;DHT22;49183;51.380;0.098;2023-07-30T19:35:36;15.70;88.80
63094;DHT22;49183;51.380;0.098;2023-07-30T19:38:17;15.70;88.70
63094;DHT22;49183;51.380;0.098;2023-07-30T19:40:59;15.70;88.70
63094;DHT22;49183;51.380;0.098;2023-07-30T19:43:38;15.70;88.70
63094;DHT22;49183;51.380;0.098;2023-07-30T19:46:06;15.70;88.70
63094;DHT22;49183;51.380;0.098;2023-07-30T19:48:36;15.70;88.70
63094;DHT22;49183;51.380;0.098;2023-07-30T19:51:05;15.70;88.70
63094;DHT22;49183;51.380;0.098;2023-07-30T19:53:32;15.70;88.60
63094;DHT22;49183;51.380;0.098;2023-07-30T19:56:00;15.70;88.60
63094;DHT22;49183;51.380;0.098;2023-07-30T19:58:30;15.70;88.60
63094;DHT22;49183;51.380;0.098;2023-07-30T20:00:58;15.80;88.60
63094;DHT22;49183;51.380;0.098;2023-07-30T20:03:27;15.80;88.60
63094;DHT22;49183;51.380;0.098;2023-07-30T20:05:59;15.80;88.70
63094;DHT22;49183;51.380;0.098;2023-07-30T20:08:27;15.80;88.80
63094;DHT22;49183;51.380;0.098;2023-07-30T20:10:56;15.80;88.90
63094;DHT22;49183;51.380;0.098;2023-07-30T20:13:26;15.80;88.90
63094;DHT22;49183;51.380;0.098;2023-07-30T20:15:54;15.80;89.00
63094;DHT22;49183;51.380;0.098;2023-07-30T20:18:25;15.80;89.00
63094;DHT22;49183;51.380;0.098;2023-07-30T20:20:53;15.80;89.00
63094;DHT22;49183;51.380;0.098;2023-07-30T20:23:23;15.80;89.00
63094;DHT22;49183;51.380;0.098;2023-07-30T20:25:53;15.70;89.00
63094;DHT22;49183;51.380;0.098;2023-07-30T20:28:21;15.70;89.00
63094;DHT22;49183;51.380;0.098;2023-07-30T20:30:48;15.70;89.00
63094;DHT22;49183;51.380;0.098;2023-07-30T20:33:17;15.70;89.10
63094;DHT22;49183;51.380;0.098;2023-07-30T20:35:49;15.60;89.10
63094;DHT22;49183;51.380;0.098;2023-07-30T20:38:16;15.70;89.10
63094;DHT22;49183;51.380;0.098;2023-07-30T20:40:44;15.60;89.10
63094;DHT22;49183;51.380;0.098;2023-07-30T20:43:17;15.70;89.10
63094;DHT22;49183;51.380;0.098;2023-07-30T20:45:47;15.60;89.10
63094;DHT22;49183;51.380;0.098;2023-07-30T20:48:14;15.60;89.10
63094;DHT22;49183;51.380;0.098;2023-07-30T20:50:44;15.60;89.10
63094;DHT22;49183;51.380;0.098;2023-07-30T20:53:15;15.60;89.10
63094;DHT22;49183;51.380;0.098;2023-07-30T20:55:45;15.60;89.20
63094;DHT22;49183;51.380;0.098;2023-07-30T20:58:15;15.50;89.20
63094;DHT22;49183;51.380;0.098;2023-07-30T21:03:34;15.50;89.50
63094;DHT22;49183;51.380;0.098;2023-07-30T21:06:11;15.40;89.50
63094;DHT22;49183;51.380;0.098;2023-07-30T21:08:39;15.50;89.50
63094;DHT22;49183;51.380;0.098;2023-07-30T21:11:10;15.40;89.60
63094;DHT22;49183;51.380;0.098;2023-07-30T21:13:40;15.40;89.70
63094;DHT22;49183;51.380;0.098;2023-07-30T21:16:07;15.40;89.70
63094;DHT22;49183;51.380;0.098;2023-07-30T21:18:34;15.40;89.70
63094;DHT22;49183;51.380;0.098;2023-07-30T21:21:03;15.40;89.70
63094;DHT22;49183;51.380;0.098;2023-07-30T21:23:30;15.40;89.80
63094;DHT22;49183;51.380;0.098;2023-07-30T21:25:58;15.40;89.80
63094;DHT22;49183;51.380;0.098;2023-07-30T21:28:26;15.30;89.90
63094;DHT22;49183;51.380;0.098;2023-07-30T21:31:01;15.30;90.00
63094;DHT22;49183;51.380;0.098;2023-07-30T21:33:30;15.40;90.00
63094;DHT22;49183;51.380;0.098;2023-07-30T21:39:15;15.30;90.10
63094;DHT22;49183;51.380;0.098;2023-07-30T21:41:42;15.30;90.20
63094;DHT22;49183;51.380;0.098;2023-07-30T21:50:14;15.30;90.40
63094;DHT22;49183;51.380;0.098;2023-07-30T21:52:41;15.30;90.50
63094;DHT22;49183;51.380;0.098;2023-07-30T22:01:08;15.30;90.70
63094;DHT22;49183;51.380;0.098;2023-07-30T22:03:36;15.30;90.80
63094;DHT22;49183;51.380;0.098;2023-07-30T22:06:06;15.30;90.80
63094;DHT22;49183;51.380;0.098;2023-07-30T22:08:37;15.30;90.90
63094;DHT22;49183;51.380;0.098;2023-07-30T22:11:04;15.30;91.00
63094;DHT22;49183;51.380;0.098;2023-07-30T22:13:32;15.30;91.10
63094;DHT22;49183;51.380;0.098;2023-07-30T22:15:59;15.30;91.20
63094;DHT22;49183;51.380;0.098;2023-07-30T22:18:27;15.30;91.30
63094;DHT22;49183;51.380;0.098;2023-07-30T22:20:54;15.30;91.50
63094;DHT22;49183;51.380;0.098;2023-07-30T22:23:22;15.30;91.50
63094;DHT22;49183;51.380;0.098;2023-07-30T22:25:50;15.30;91.60
63094;DHT22;49183;51.380;0.098;2023-07-30T22:28:19;15.30;91.60
63094;DHT22;49183;51.380;0.098;2023-07-30T22:30:47;15.30;91.60
63094;DHT22;49183;51.380;0.098;2023-07-30T22:33:17;15.30;91.60
63094;DHT22;49183;51.380;0.098;2023-07-30T22:35:52;15.30;91.60
63094;DHT22;49183;51.380;0.098;2023-07-30T22:38:19;15.30;91.60
63094;DHT22;49183;51.380;0.098;2023-07-30T22:40:47;15.30;91.60
63094;DHT22;49183;51.380;0.098;2023-07-30T22:43:15;15.30;91.60
63094;DHT22;49183;51.380;0.098;2023-07-30T22:45:43;15.30;91.70
63094;DHT22;49183;51.380;0.098;2023-07-30T22:48:13;15.30;91.80
63094;DHT22;49183;51.380;0.098;2023-07-30T22:50:44;15.40;91.90
63094;DHT22;49183;51.380;0.098;2023-07-30T22:53:14;15.30;91.90
63094;DHT22;49183;51.380;0.098;2023-07-30T22:55:45;15.30;92.00
63094;DHT22;49183;51.380;0.098;2023-07-30T22:58:13;15.30;92.00
63094;DHT22;49183;51.380;0.098;2023-07-30T23:00:41;15.40;92.10
63094;DHT22;49183;51.380;0.098;2023-07-30T23:03:10;15.40;92.10
63094;DHT22;49183;51.380;0.098;2023-07-30T23:05:37;15.40;92.10
63094;DHT22;49183;51.380;0.098;2023-07-30T23:08:10;15.40;92.20
63094;DHT22;49183;51.380;0.098;2023-07-30T23:10:38;15.40;92.20
63094;DHT22;49183;51.380;0.098;2023-07-30T23:13:05;15.40;92.10
63094;DHT22;49183;51.380;0.098;2023-07-30T23:15:35;15.40;92.10
63094;DHT22;49183;51.380;0.098;2023-07-30T23:18:03;15.50;92.10
63094;DHT22;49183;51.380;0.098;2023-07-30T23:20:30;15.50;92.10
63094;DHT22;49183;51.380;0.098;2023-07-30T23:22:59;15.50;92.10
63094;DHT22;49183;51.380;0.098;2023-07-30T23:25:27;15.50;92.10
63094;DHT22;49183;51.380;0.098;2023-07-30T23:27:58;15.50;92.10
63094;DHT22;49183;51.380;0.098;2023-07-30T23:30:28;15.60;92.10
63094;DHT22;49183;51.380;0.098;2023-07-30T23:32:55;15.60;92.20
63094;DHT22;49183;51.380;0.098;2023-07-30T23:35:23;15.60;92.20
63094;DHT22;49183;51.380;0.098;2023-07-30T23:37:52;15.60;92.20
63094;DHT22;49183;51.380;0.098;2023-07-30T23:40:23;15.60;92.20
63094;DHT22;49183;51.380;0.098;2023-07-30T23:42:54;15.60;92.20
63094;DHT22;49183;51.380;0.098;2023-07-30T23:45:25;15.60;92.40
63094;DHT22;49183;51.380;0.098;2023-07-30T23:47:53;15.60;92.30
63094;DHT22;49183;51.380;0.098;2023-07-30T23:50:21;15.60;92.40
63094;DHT22;49183;51.380;0.098;2023-07-30T23:52:57;15.60;92.40
63094;DHT22;49183;51.380;0.098;2023-07-30T23:55:28;15.60;92.40
63094;DHT22;49183;51.380;0.098;2023-07-30T23:58:03;15.60;92.40
